NCAR-RAP Real-Time Weather Data

Output produced by METARs form (08 May 2021  00:48 UTC)
found at http://weather.rap.ucar.edu/surface/
 
KBPT 072353Z 18009KT 10SM CLR 25/14 A3006 RMK AO2 SLP179 T02500139 10306 20244 56013
KBPT 072253Z 18009KT 10SM CLR 27/14 A3007 RMK AO2 SLP181 T02670139
KBPT 072153Z 19006KT 10SM CLR 29/14 A3008 RMK AO2 SLP186 T02890139
KBPT 072053Z 17006G15KT 10SM CLR 29/14 A3010 RMK AO2 SLP192 T02940144 58023
KBPT 071953Z 13006KT 10SM CLR 29/14 A3012 RMK AO2 SLP200 T02940139
KBPT 071853Z VRB06KT 10SM CLR 29/11 A3014 RMK AO2 SLP207 T02890111
KBPT 071753Z 12009KT 10SM CLR 28/13 A3017 RMK AO2 SLP215 T02830128 10294 20139 58006
KBPT 071653Z 04007KT 10SM CLR 28/15 A3019 RMK AO2 SLP222 T02830150
KBPT 071553Z 04007KT 10SM CLR 27/14 A3019 RMK AO2 SLP223 T02670144
KBPT 071453Z 03004KT 10SM CLR 26/14 A3018 RMK AO2 SLP220 T02610144 51012
KBPT 071353Z VRB03KT 10SM CLR 24/16 A3018 RMK AO2 SLP220 T02390161
KBPT 071253Z 00000KT 10SM CLR 19/18 A3018 RMK AO2 SLP219 T01890178
KBPT 071153Z 00000KT 10SM CLR 14/14 A3015 RMK AO2 SLP209 T01440144 10194 20133 53005
KBPT 071053Z AUTO 24004KT 10SM CLR 14/14 A3013 RMK AO2 SLP204 T01440144
KBPT 070953Z AUTO 00000KT 10SM CLR 15/15 A3013 RMK AO2 SLP202 T01500150